createdAt,value
2022-11-24T08:29:33.746Z,25.00
2022-11-24T08:29:48.746Z,25.00
2022-11-24T08:30:03.707Z,25.00
2022-11-24T08:30:19.691Z,25.00
2022-11-24T08:30:41.746Z,25.00
2022-11-24T08:30:55.961Z,25.00
2022-11-24T08:31:05.895Z,25.00
2022-11-24T08:31:22.605Z,25.00
2022-11-24T08:31:34.114Z,25.00
2022-11-24T08:31:48.902Z,25.00
2022-11-24T08:32:03.811Z,25.00
2022-11-24T08:32:22.327Z,25.00
2022-11-24T08:32:33.960Z,25.00
2022-11-24T08:32:53.466Z,25.00
2022-11-24T08:33:03.749Z,25.00
2022-11-24T08:33:20.927Z,25.00
2022-11-24T08:33:33.752Z,25.00
2022-11-24T08:33:54.052Z,25.00
2022-11-24T08:34:04.370Z,25.00
2022-11-24T08:34:32.334Z,25.00
2022-11-24T08:34:47.907Z,25.00
2022-11-24T08:34:49.006Z,25.00
2022-11-24T08:35:19.424Z,25.00
2022-11-24T08:35:21.749Z,25.00
2022-11-24T08:35:34.321Z,25.00
2022-11-24T12:24:57.795Z,25.00
2022-11-24T12:25:12.663Z,25.00
2022-11-24T12:25:27.672Z,25.00
2022-11-24T12:25:42.663Z,25.00
2022-11-24T12:25:57.702Z,25.00
2022-11-24T12:26:12.718Z,25.00
2022-11-24T12:26:27.642Z,25.00
2022-11-24T12:26:42.647Z,25.00
2022-11-24T12:26:57.701Z,25.00
2022-11-24T12:27:14.810Z,25.00
2022-11-24T12:27:28.660Z,25.00
2022-11-24T12:27:42.637Z,25.00
2022-11-24T12:27:57.646Z,25.00
2022-11-24T12:28:12.652Z,25.00
2022-11-24T12:28:27.625Z,25.00
2022-11-24T12:28:42.636Z,25.00
2022-11-24T12:28:57.619Z,25.00
2022-11-24T12:29:12.638Z,25.00
2022-11-24T12:29:27.659Z,25.00
2022-11-24T12:29:42.656Z,25.00
2022-11-24T12:29:57.645Z,25.00
2022-11-24T12:30:12.788Z,25.00
2022-11-24T12:30:27.689Z,25.00
2022-11-24T12:30:42.639Z,25.00
2022-11-24T12:30:57.746Z,25.00
2022-11-24T12:31:12.749Z,25.00
2022-11-24T12:31:27.816Z,25.00
2022-11-24T12:31:42.677Z,25.00
2022-11-24T12:31:57.605Z,25.00
2022-11-24T12:32:12.601Z,25.00
2022-11-24T12:32:27.584Z,22.33
2022-11-24T12:32:42.610Z,19.06
2022-11-24T12:32:57.628Z,16.07
2022-11-24T12:33:12.651Z,10.50
2022-11-24T12:33:27.626Z,4.68
2022-11-24T12:33:47.582Z,0.00
2022-11-24T12:34:01.392Z,0.02
2022-11-24T12:34:12.626Z,0.03
2022-11-24T12:34:27.593Z,0.00
2022-11-24T12:34:42.599Z,0.00
2022-11-24T12:34:57.627Z,0.00
2022-11-24T12:35:12.595Z,0.00
2022-11-24T12:35:27.580Z,0.00
2022-11-24T12:35:42.640Z,0.00
2022-11-24T12:35:57.619Z,0.00
2022-11-24T12:36:12.621Z,0.00
2022-11-24T12:36:27.594Z,0.00
2022-11-24T12:36:42.571Z,0.00
2022-11-24T12:36:57.589Z,0.00
2022-11-24T12:37:12.616Z,0.00
2022-11-24T12:37:27.610Z,0.00
2022-11-24T12:37:42.606Z,0.00
2022-11-24T12:37:57.599Z,0.00
2022-11-24T12:38:12.633Z,0.00
2022-11-24T12:38:27.575Z,0.00
2022-11-24T12:38:42.574Z,0.00
2022-11-24T12:38:57.584Z,0.00
2022-11-24T12:39:12.588Z,0.00
2022-11-24T12:39:27.605Z,0.00
2022-11-24T12:39:42.607Z,0.00
2022-11-24T12:39:57.545Z,0.00
2022-11-24T12:40:12.598Z,0.00
2022-11-24T12:40:27.586Z,5.81
2022-11-24T12:40:46.838Z,16.10
2022-11-24T12:41:18.073Z,16.14
2022-11-24T12:41:43.538Z,16.17
2022-11-24T12:41:43.956Z,16.15
2022-11-24T12:41:57.591Z,16.74
2022-11-24T12:42:12.561Z,17.37
2022-11-24T12:42:27.544Z,18.16
2022-11-24T12:42:42.554Z,19.07
2022-11-24T12:42:57.553Z,20.28
2022-11-24T12:43:12.548Z,21.37
2022-11-24T12:43:27.570Z,23.07
2022-11-24T12:43:42.571Z,24.15
2022-11-24T12:43:57.539Z,25.78
2022-11-24T12:44:12.559Z,27.82
2022-11-24T12:44:27.535Z,31.13
2022-11-24T12:44:42.573Z,35.86
2022-11-24T12:44:57.544Z,41.11
2022-11-24T12:45:12.557Z,43.96
2022-11-24T12:45:27.553Z,47.20
2022-11-24T12:45:42.510Z,50.62
2022-11-24T12:45:57.550Z,55.76
2022-11-24T12:46:17.263Z,62.08
2022-11-24T12:46:28.614Z,16.20
2022-11-24T12:46:42.581Z,16.63
2022-11-24T12:46:57.566Z,17.23
2022-11-24T12:47:12.727Z,18.08
2022-11-24T12:47:27.538Z,19.14
2022-11-24T12:47:42.555Z,20.31
2022-11-24T12:47:57.525Z,22.09
2022-11-24T12:48:12.515Z,24.04
2022-11-24T12:48:27.515Z,25.85
2022-11-24T12:48:42.523Z,27.61
2022-11-24T12:48:57.555Z,29.82
2022-11-24T12:49:12.528Z,32.46
2022-11-24T12:49:27.513Z,35.82
2022-11-24T12:49:42.520Z,40.36
2022-11-24T12:49:57.541Z,43.72
2022-11-24T12:50:12.481Z,46.97
2022-11-24T12:50:27.520Z,49.73
2022-11-24T12:50:42.771Z,51.24
2022-11-24T12:50:57.517Z,54.73
2022-11-24T12:51:12.520Z,56.17
2022-11-24T12:51:27.511Z,57.88
2022-11-24T12:51:42.530Z,52.91
2022-11-24T12:51:57.516Z,53.03
2022-11-24T12:52:12.488Z,55.82
2022-11-24T12:52:27.507Z,56.35
2022-11-24T12:52:42.507Z,60.40
2022-11-24T12:52:59.073Z,63.55
2022-11-24T12:53:12.534Z,66.62
2022-11-24T12:53:27.510Z,72.23
2022-11-24T12:53:42.482Z,76.91
2022-11-24T12:53:57.491Z,79.23
2022-11-24T12:54:12.487Z,79.22
2022-11-24T12:54:27.522Z,79.90
2022-11-24T12:54:42.489Z,77.57
2022-11-24T12:54:57.504Z,71.54
2022-11-24T12:55:12.503Z,68.03
2022-11-24T12:55:27.476Z,64.80
2022-11-24T12:55:42.490Z,61.66
2022-11-24T12:55:57.510Z,56.10
2022-11-24T12:56:12.494Z,52.48
2022-11-24T12:56:27.499Z,49.19
2022-11-24T12:56:42.504Z,47.77
2022-11-24T12:56:57.478Z,41.60
2022-11-24T12:57:12.511Z,41.02
2022-11-24T12:57:27.487Z,37.46
2022-11-24T12:57:42.497Z,33.47
2022-11-24T12:57:57.479Z,29.64
2022-11-24T12:58:12.486Z,29.99
2022-11-24T12:58:27.520Z,27.93
2022-11-24T12:58:42.479Z,26.05
2022-11-24T12:58:57.505Z,25.95
2022-11-24T12:59:12.462Z,25.34
2022-11-24T12:59:27.509Z,25.00
2022-11-24T12:59:42.455Z,25.97
2022-11-24T12:59:57.478Z,23.80
2022-11-24T13:00:12.469Z,28.15
2022-11-24T13:00:27.481Z,25.29
2022-11-24T13:00:42.491Z,43.60
2022-11-24T13:00:57.433Z,49.13
2022-11-24T13:01:16.418Z,35.32
2022-11-24T13:01:27.482Z,35.35
2022-11-24T13:01:42.524Z,35.38
2022-11-24T13:01:57.582Z,35.32
2022-11-24T13:02:12.505Z,30.10
2022-11-24T13:02:27.530Z,27.77
2022-11-24T13:02:42.569Z,24.83
2022-11-24T13:02:57.576Z,35.80
2022-11-24T13:03:12.507Z,39.81
2022-11-24T13:03:27.435Z,55.47
2022-11-24T13:03:42.433Z,60.21
2022-11-24T13:03:57.445Z,52.86
2022-11-24T13:04:12.461Z,44.76
2022-11-24T13:04:27.452Z,37.11
2022-11-24T13:04:42.466Z,26.58
2022-11-24T13:04:57.432Z,18.16
2022-11-24T13:05:12.447Z,17.77
2022-11-24T13:05:27.426Z,247.18
2022-11-24T13:05:42.421Z,395.17
2022-11-24T13:05:57.443Z,437.22
2022-11-24T13:06:12.448Z,481.60
2022-11-24T13:06:27.451Z,250.95
2022-11-24T13:06:48.803Z,254.87
2022-11-24T13:06:58.437Z,254.88
2022-11-24T13:07:12.511Z,236.17
2022-11-24T13:19:00.731Z,25.00
2022-11-24T13:19:15.645Z,25.00
2022-11-24T13:19:30.742Z,25.00
2022-11-24T13:19:45.662Z,25.00
2022-11-24T13:20:00.670Z,25.00
2022-11-24T13:20:15.659Z,25.00
2022-11-24T13:20:30.670Z,25.00
2022-11-24T13:20:45.680Z,25.00
2022-11-24T13:21:00.671Z,25.00
2022-11-24T13:21:15.675Z,25.00
2022-11-24T13:21:30.633Z,25.00
2022-11-24T13:21:45.666Z,25.00
2022-11-24T13:22:00.664Z,25.00
2022-11-24T13:22:15.663Z,25.00
2022-11-24T13:22:30.634Z,25.00
2022-11-24T13:22:45.637Z,25.00
2022-11-24T13:23:00.660Z,25.00
2022-11-24T13:23:15.610Z,25.00
2022-11-24T13:23:30.837Z,25.00
2022-11-24T13:23:45.651Z,25.00
2022-11-24T13:24:00.661Z,24.95
2022-11-24T13:24:30.639Z,25.00
2022-11-24T13:24:45.660Z,25.00
2022-11-24T13:25:00.627Z,27.77
2022-11-24T13:25:15.620Z,25.02
2022-11-24T13:25:30.619Z,25.00
2022-11-24T13:25:45.625Z,25.61
2022-11-24T13:26:00.717Z,25.00
2022-11-24T13:26:15.606Z,25.00
2022-11-24T13:26:30.637Z,25.73
2022-11-24T13:26:45.646Z,25.00
2022-11-24T13:27:00.641Z,25.00
2022-11-24T13:27:15.963Z,25.00
2022-11-24T13:27:30.616Z,27.74
2022-11-24T13:27:45.639Z,27.67
2022-11-24T13:28:00.633Z,25.87
2022-11-24T13:28:20.345Z,27.79
2022-11-24T13:29:00.393Z,27.83
2022-11-24T13:29:03.206Z,27.83
2022-11-24T13:29:12.924Z,27.86
2022-11-24T13:29:24.975Z,27.87
2022-11-24T13:29:31.575Z,27.88
2022-11-24T13:29:45.622Z,28.51
2022-11-24T13:30:00.634Z,28.75
2022-11-24T13:30:15.645Z,28.87
2022-11-24T13:30:30.608Z,28.87
2022-11-24T13:30:45.609Z,28.88
2022-11-24T13:31:00.663Z,28.71
2022-11-24T13:31:15.680Z,27.93
2022-11-24T13:31:30.675Z,25.26
2022-11-24T13:31:45.684Z,22.94
2022-11-24T13:32:00.603Z,21.78
2022-11-24T13:32:15.615Z,23.28
2022-11-24T13:32:30.614Z,19.08
2022-11-24T13:32:45.606Z,18.70
2022-11-24T13:33:00.628Z,16.97
2022-11-24T13:33:17.088Z,18.13
2022-11-24T13:33:30.793Z,26.60
2022-11-24T13:33:45.593Z,22.31
2022-11-24T13:34:00.621Z,20.26
2022-11-24T13:34:15.663Z,21.96
2022-11-24T13:34:30.569Z,24.25
2022-11-24T13:34:45.622Z,25.00
2022-11-24T13:35:00.596Z,25.00
2022-11-24T13:35:15.747Z,25.00
2022-11-24T13:35:30.577Z,27.66
2022-11-24T13:35:45.698Z,28.97
2022-11-24T13:36:00.590Z,27.21
2022-11-24T13:36:15.591Z,27.47
2022-11-24T13:36:30.630Z,27.62
2022-11-24T13:36:45.563Z,28.47
2022-11-24T13:37:26.413Z,29.69
2022-11-24T13:37:31.681Z,29.74
2022-11-24T13:37:35.773Z,29.74
2022-11-24T13:37:45.558Z,29.76
2022-11-24T13:38:00.567Z,30.14
2022-11-24T13:38:15.563Z,30.35
2022-11-24T13:38:30.670Z,30.38
2022-11-24T13:38:45.673Z,30.41
2022-11-24T13:39:00.623Z,30.53
2022-11-24T13:39:15.554Z,30.03
2022-11-24T13:39:30.575Z,29.97
2022-11-24T13:39:50.174Z,32.32
2022-11-24T13:40:01.551Z,29.75
2022-11-24T13:40:15.572Z,29.89
2022-11-24T13:40:30.570Z,29.88
2022-11-24T13:41:13.014Z,29.81
2022-11-24T13:41:27.090Z,29.74
2022-11-24T13:41:28.225Z,29.73
2022-11-24T13:41:31.661Z,29.75
2022-11-24T13:41:45.655Z,30.20
2022-11-24T13:42:00.618Z,30.27
2022-11-24T13:42:42.106Z,30.12
2022-11-24T13:42:42.235Z,29.75
2022-11-24T13:42:46.643Z,29.74
2022-11-24T13:43:00.762Z,30.03
2022-11-24T13:43:15.587Z,30.05
2022-11-24T13:43:30.601Z,29.87
2022-11-24T13:43:45.633Z,26.05
2022-11-24T13:44:00.639Z,20.16
2022-11-24T13:44:15.633Z,17.23
2022-11-24T13:44:30.603Z,16.08
2022-11-24T13:44:45.616Z,12.75
2022-11-24T13:45:00.600Z,10.06
2022-11-24T13:45:15.779Z,8.98
2022-11-24T13:45:30.609Z,7.65
2022-11-24T13:45:45.605Z,10.37
2022-11-24T13:46:00.605Z,14.00
2022-11-24T13:46:15.792Z,9.51
2022-11-24T13:46:30.659Z,7.75
2022-11-24T13:46:45.706Z,9.19
2022-11-24T13:47:05.743Z,8.58
2022-11-24T13:47:16.670Z,29.73
2022-11-24T13:47:30.607Z,29.78
2022-11-24T13:47:45.700Z,24.60
2022-11-24T13:48:00.617Z,29.74
2022-11-24T13:48:15.636Z,26.93
2022-11-24T13:48:30.595Z,20.49
2022-11-24T13:48:45.736Z,16.29
2022-11-24T13:49:00.561Z,14.53
2022-11-24T13:49:15.871Z,12.02
2022-11-24T13:49:30.859Z,10.32
2022-11-24T13:49:45.612Z,8.92
2022-11-24T13:50:00.584Z,9.61
2022-11-24T13:50:15.583Z,8.93
2022-11-24T13:50:30.562Z,7.46
2022-11-24T13:50:45.575Z,6.30
2022-11-24T13:51:00.627Z,5.68
2022-11-24T13:51:15.569Z,5.12
2022-11-24T13:51:30.615Z,4.77
2022-11-24T13:51:45.572Z,3.09
2022-11-24T13:52:00.596Z,3.89
2022-11-24T13:52:15.553Z,8.09
2022-11-24T13:52:31.321Z,12.55
2022-11-24T13:52:45.528Z,22.08
2022-11-24T13:53:00.561Z,25.00
2022-11-24T13:53:15.888Z,31.83
2022-11-24T13:53:30.577Z,40.72
2022-11-24T13:53:45.557Z,38.88
2022-11-24T13:54:00.557Z,36.84
2022-11-24T13:54:15.561Z,37.91
2022-11-24T13:54:30.564Z,42.26
2022-11-24T13:54:45.545Z,87.38
2022-11-24T13:55:00.525Z,79.29
2022-11-24T13:55:15.544Z,57.24
2022-11-24T13:55:30.558Z,46.89
2022-11-24T13:55:45.534Z,41.23
2022-11-24T13:56:00.684Z,34.56
2022-11-24T13:56:15.533Z,35.69
2022-11-24T13:56:30.527Z,35.45
2022-11-24T13:56:45.517Z,38.44
2022-11-24T13:57:00.515Z,39.56
2022-11-24T13:57:15.673Z,39.49
2022-11-24T13:57:30.536Z,37.94
2022-11-24T13:57:45.838Z,37.25
2022-11-24T13:58:00.539Z,35.44
2022-11-24T13:58:15.576Z,34.89
2022-11-24T13:58:31.320Z,34.66
2022-11-24T13:58:45.561Z,34.00
2022-11-24T13:59:01.277Z,32.49
2022-11-24T13:59:15.538Z,32.86
2022-11-24T13:59:30.582Z,32.20
2022-11-24T13:59:45.520Z,28.82
2022-11-24T14:00:00.541Z,28.90
2022-11-24T14:00:15.511Z,29.98
2022-11-24T14:00:30.533Z,28.64
2022-11-24T14:00:45.532Z,28.43
2022-11-24T14:01:00.538Z,28.08
2022-11-24T14:01:15.584Z,28.17
2022-11-24T14:01:30.565Z,26.44
2022-11-24T14:01:45.591Z,26.45
2022-11-24T14:02:00.604Z,27.20
2022-11-24T14:02:15.574Z,26.46
2022-11-24T14:02:30.541Z,26.90
2022-11-24T14:02:45.597Z,27.64
2022-11-24T14:03:00.630Z,28.76
2022-11-24T14:03:15.584Z,28.65
2022-11-24T14:03:30.513Z,27.24
2022-11-24T14:04:07.253Z,28.31
2022-11-24T14:04:32.822Z,28.38
2022-11-24T14:04:43.165Z,28.35
2022-11-24T14:04:45.980Z,28.51
2022-11-24T14:05:00.802Z,28.77
2022-11-24T14:05:15.773Z,28.83
2022-11-24T14:05:30.742Z,28.84
2022-11-24T14:05:46.573Z,28.79
2022-11-24T14:06:00.858Z,28.84
2022-11-24T14:06:15.839Z,28.46
2022-11-24T14:06:30.742Z,27.47
2022-11-24T14:06:45.805Z,27.45
2022-11-24T14:07:16.789Z,28.35
2022-11-24T14:07:31.609Z,28.42
2022-11-24T14:07:47.529Z,28.39
2022-11-24T14:08:01.715Z,27.13
2022-11-24T14:08:15.759Z,24.68
2022-11-24T14:08:31.023Z,22.26
2022-11-24T14:08:45.741Z,21.39
2022-11-24T14:09:00.749Z,20.36
2022-11-24T14:09:15.712Z,17.11
2022-11-24T14:09:30.692Z,18.18
2022-11-24T14:09:45.753Z,17.11
2022-11-24T14:10:00.735Z,18.29
2022-11-24T14:10:15.683Z,18.24
2022-11-24T14:10:30.719Z,18.86
2022-11-24T14:10:46.025Z,20.21
2022-11-24T14:11:00.709Z,19.73
2022-11-24T14:11:15.708Z,19.30
2022-11-24T14:11:30.675Z,17.51
2022-11-24T14:11:45.690Z,16.05
2022-11-24T14:12:00.709Z,16.29
2022-11-24T14:12:15.736Z,20.92
2022-11-24T14:12:30.722Z,26.14
2022-11-24T14:12:45.807Z,26.77
2022-11-24T14:13:00.684Z,30.08
2022-11-24T14:13:15.699Z,30.54
2022-11-24T14:13:30.706Z,30.03
2022-11-24T14:13:45.857Z,26.73
2022-11-24T14:14:00.688Z,25.78
2022-11-24T14:14:17.700Z,26.75
2022-11-24T14:14:30.724Z,26.79
2022-11-24T14:14:45.692Z,26.92
2022-11-24T14:15:00.701Z,26.95
2022-11-24T14:15:15.650Z,26.93
2022-11-24T14:15:30.677Z,26.35
2022-11-24T14:15:45.718Z,22.74
2022-11-24T14:16:00.689Z,20.34
2022-11-24T14:16:15.698Z,17.47
2022-11-24T14:16:30.713Z,16.50
2022-11-24T14:16:45.688Z,14.86
2022-11-24T14:17:00.680Z,15.24
2022-11-24T14:17:15.697Z,13.82
2022-11-24T14:17:30.656Z,9.96
2022-11-24T14:17:45.659Z,6.52
2022-11-24T14:18:00.663Z,7.05
2022-11-24T14:18:15.659Z,5.72
2022-11-24T14:18:30.665Z,5.25
2022-11-24T14:18:45.690Z,3.83
2022-11-24T14:19:00.689Z,2.01
2022-11-24T14:19:15.646Z,1.81
2022-11-24T14:19:32.314Z,4.88
2022-11-24T14:19:45.671Z,23.88
2022-11-24T14:20:00.675Z,28.05
2022-11-24T14:20:15.668Z,25.00
2022-11-24T14:20:30.673Z,27.70
2022-11-24T14:20:45.653Z,25.00
2022-11-24T14:21:00.712Z,25.00
2022-11-24T14:21:15.631Z,28.28
2022-11-24T14:21:30.639Z,30.10
2022-11-24T14:21:45.670Z,33.55
2022-11-24T14:22:00.672Z,37.70
2022-11-24T14:22:15.681Z,38.41
2022-11-24T14:22:30.685Z,38.78
2022-11-24T14:22:45.660Z,38.66
2022-11-24T14:23:00.665Z,37.10
2022-11-24T14:23:15.630Z,32.22
2022-11-24T14:23:30.630Z,30.31
2022-11-24T14:23:45.620Z,25.00
2022-11-24T14:24:00.622Z,29.10
2022-11-24T14:24:15.638Z,32.99
2022-11-24T14:24:30.637Z,33.51
2022-11-24T14:24:45.807Z,32.30
2022-11-24T14:25:00.638Z,28.63
2022-11-24T14:25:15.638Z,28.18
2022-11-24T14:25:30.619Z,25.00
2022-11-24T14:25:45.647Z,25.13
2022-11-24T14:26:00.681Z,26.06
2022-11-24T14:26:15.639Z,25.11
2022-11-24T14:26:30.666Z,24.92
2022-11-24T14:26:45.580Z,25.00
2022-11-24T14:27:00.609Z,26.33
2022-11-24T14:27:15.608Z,27.94
2022-11-24T14:27:30.609Z,37.82
2022-11-24T14:27:45.645Z,366.00
2022-11-24T14:28:01.042Z,459.80
2022-11-24T14:28:15.670Z,439.86
2022-11-24T14:28:30.672Z,334.26
2022-11-24T14:28:45.679Z,220.35
2022-11-24T14:29:00.618Z,76.30
2022-11-24T14:29:15.881Z,0.81
2022-11-24T14:29:30.639Z,0.00
2022-11-24T14:29:48.830Z,0.00
2022-11-24T14:30:01.656Z,0.00
2022-11-24T14:30:15.617Z,0.01
2022-11-24T14:30:30.627Z,0.06
2022-11-24T14:30:45.587Z,0.76
2022-11-24T14:31:00.646Z,2.20
2022-11-24T14:31:15.652Z,3.76
2022-11-24T14:31:30.625Z,5.69
2022-11-24T14:31:45.687Z,7.14
2022-11-24T14:32:00.617Z,8.60
2022-11-24T14:32:15.618Z,10.77
2022-11-24T14:32:30.611Z,13.54
2022-11-24T14:32:45.583Z,16.86
2022-11-24T14:33:00.583Z,19.70
2022-11-24T14:33:15.686Z,23.03
2022-11-24T14:33:30.614Z,26.43
2022-11-24T14:33:45.608Z,30.03
2022-11-24T14:34:00.589Z,33.89
2022-11-24T14:34:15.982Z,37.83
2022-11-24T14:34:30.746Z,40.77
2022-11-24T14:34:45.598Z,43.39
2022-11-24T14:35:00.649Z,52.70
2022-11-24T14:35:15.699Z,55.15
2022-11-24T14:35:30.705Z,53.23
2022-11-24T14:35:45.639Z,53.10
2022-11-24T14:36:00.594Z,51.78
2022-11-24T14:36:15.705Z,49.03
2022-11-24T14:36:30.619Z,46.69
2022-11-24T14:36:45.631Z,45.00
2022-11-24T14:37:00.608Z,44.94
2022-11-24T14:37:15.621Z,42.99
2022-11-24T14:37:30.657Z,41.90
2022-11-24T14:37:45.569Z,43.56
2022-11-24T14:38:01.018Z,41.65
2022-11-24T14:38:15.569Z,40.54
2022-11-24T14:38:30.574Z,40.58
2022-11-24T14:38:45.580Z,41.60
2022-11-24T14:39:00.550Z,39.35
2022-11-24T14:39:15.604Z,38.63
2022-11-24T14:39:30.567Z,37.42
2022-11-24T14:39:45.544Z,33.42
2022-11-24T14:40:00.577Z,32.22
2022-11-24T14:40:15.549Z,30.55
2022-11-24T14:40:30.546Z,29.18
2022-11-24T14:40:45.569Z,26.93
2022-11-24T14:41:00.551Z,26.27
2022-11-24T14:41:15.700Z,28.20
2022-11-24T14:41:30.504Z,27.22
2022-11-24T14:41:45.532Z,27.28
2022-11-24T14:42:00.567Z,25.71
2022-11-24T14:42:15.504Z,25.00
2022-11-24T14:42:30.601Z,26.78
2022-11-24T14:42:45.522Z,27.22
2022-11-24T14:43:00.544Z,28.46
2022-11-24T14:43:15.524Z,27.53
2022-11-24T14:43:30.536Z,26.04
2022-11-24T14:43:45.539Z,25.14
2022-11-24T14:44:00.543Z,26.57
2022-11-24T14:44:15.657Z,29.17
2022-11-24T14:44:30.511Z,28.03
2022-11-24T14:44:45.513Z,27.08
2022-11-24T14:45:00.562Z,26.10
2022-11-24T14:45:15.522Z,25.00
2022-11-24T14:45:30.533Z,25.04
2022-11-24T14:45:45.520Z,27.72
2022-11-24T14:46:00.563Z,26.56
2022-11-24T14:46:15.547Z,25.00
2022-11-24T14:46:30.714Z,25.00
2022-11-24T14:46:45.558Z,27.16
2022-11-24T14:47:00.597Z,26.75
2022-11-24T14:47:15.501Z,28.97
2022-11-24T14:47:32.037Z,29.28
2022-11-24T14:47:45.590Z,31.78
2022-11-24T14:48:00.511Z,25.22
2022-11-24T14:48:15.514Z,25.00
2022-11-24T14:48:30.521Z,25.58
2022-11-24T14:48:45.521Z,25.00
2022-11-24T14:49:00.513Z,24.96
2022-11-24T14:49:15.589Z,25.69
2022-11-24T14:49:30.507Z,25.00
2022-11-24T14:49:45.506Z,25.04
2022-11-24T14:50:00.587Z,25.10
2022-11-24T14:50:15.571Z,26.80
2022-11-24T14:50:30.532Z,29.57
2022-11-24T14:50:45.498Z,31.59
2022-11-24T14:51:00.498Z,34.55
2022-11-24T14:51:15.499Z,31.92
2022-11-24T14:51:30.488Z,29.92
2022-11-24T14:51:45.494Z,28.46
2022-11-24T14:52:00.478Z,35.97
2022-11-24T14:52:15.494Z,50.13
2022-11-24T14:52:30.475Z,39.03
2022-11-24T14:52:45.490Z,33.50
2022-11-24T14:53:00.523Z,33.68
2022-11-24T14:53:15.483Z,38.77
2022-11-24T14:53:30.501Z,37.08
2022-11-24T14:53:45.477Z,31.61
2022-11-24T14:54:00.477Z,31.30
2022-11-24T14:54:15.560Z,33.13
2022-11-24T14:54:30.485Z,32.03
2022-11-24T14:54:45.480Z,32.43
2022-11-24T14:55:17.365Z,30.65
2022-11-24T14:55:22.878Z,30.67
2022-11-24T14:55:31.471Z,30.67
2022-11-24T14:55:45.468Z,30.85
2022-11-24T14:56:00.450Z,30.92
2022-11-24T14:56:15.435Z,30.85
2022-11-24T14:56:30.475Z,30.70
2022-11-24T14:56:45.475Z,28.93
2022-11-24T14:57:00.448Z,28.98
2022-11-24T14:57:15.479Z,29.46
2022-11-24T14:57:30.450Z,29.81
2022-11-24T14:57:45.430Z,28.92
2022-11-24T14:58:00.430Z,30.09
2022-11-24T14:58:15.540Z,29.05
2022-11-24T14:58:30.460Z,20.65
2022-11-24T14:58:45.455Z,17.12
2022-11-24T14:59:00.463Z,19.59
2022-11-24T14:59:15.523Z,21.03
2022-11-24T14:59:30.477Z,21.00
2022-11-24T14:59:45.423Z,23.61
2022-11-24T15:00:00.426Z,22.15
2022-11-24T15:00:15.433Z,23.98
2022-11-24T15:00:30.534Z,23.42
2022-11-24T15:00:45.493Z,25.00
2022-11-24T15:01:00.496Z,25.00
2022-11-24T15:01:15.461Z,25.25
2022-11-24T15:01:30.443Z,25.00
2022-11-24T15:01:45.491Z,27.20
2022-11-24T15:02:00.478Z,28.67
2022-11-24T15:02:15.477Z,26.95
2022-11-24T15:02:30.552Z,26.11
2022-11-24T15:02:45.452Z,25.00
2022-11-24T15:03:00.445Z,27.57
2022-11-24T15:03:15.448Z,26.95
2022-11-24T15:03:30.500Z,29.51
2022-11-24T15:03:45.410Z,25.55
2022-11-24T15:04:00.436Z,25.29
2022-11-24T15:04:32.388Z,25.62
2022-11-24T15:05:02.120Z,25.65
2022-11-24T15:05:02.214Z,25.64
2022-11-24T15:05:03.132Z,25.65
2022-11-24T15:05:15.400Z,25.69
2022-11-24T15:05:30.407Z,25.88
2022-11-24T15:05:45.421Z,25.98
2022-11-24T15:06:00.431Z,25.99
2022-11-24T15:06:15.414Z,25.92
2022-11-24T15:06:30.409Z,26.04
2022-11-24T15:06:45.440Z,25.91
2022-11-24T15:07:00.466Z,25.79
2022-11-24T15:07:15.514Z,26.08
2022-11-24T15:07:30.415Z,25.81
2022-11-24T15:07:45.513Z,25.66
2022-11-24T15:08:00.541Z,25.34
2022-11-24T15:08:15.404Z,25.97
2022-11-24T15:08:30.496Z,25.77
2022-11-24T15:08:45.411Z,24.91
2022-11-24T15:09:00.414Z,23.03
2022-11-24T15:09:15.457Z,21.78
2022-11-24T15:09:30.496Z,20.53
2022-11-24T15:09:45.380Z,19.74
2022-11-24T15:10:00.402Z,17.14
2022-11-24T15:10:15.396Z,18.37
2022-11-24T15:10:33.642Z,22.25
2022-11-24T15:10:45.404Z,22.28
2022-11-24T15:11:00.401Z,22.34
2022-11-24T15:11:15.394Z,22.39
2022-11-24T15:11:30.369Z,22.31
2022-11-24T15:11:45.368Z,20.44
2022-11-24T15:12:00.384Z,18.64
2022-11-24T15:12:15.385Z,20.23
2022-11-24T15:12:30.385Z,19.79
2022-11-24T15:12:45.389Z,19.95
2022-11-24T15:13:00.391Z,19.73
2022-11-24T15:13:15.375Z,19.16
2022-11-24T15:13:30.350Z,19.92
2022-11-24T15:13:45.383Z,18.14
2022-11-24T15:14:00.384Z,20.13
2022-11-24T15:14:15.381Z,20.10
2022-11-24T15:14:30.444Z,20.93
2022-11-24T15:14:45.434Z,20.98
2022-11-24T15:15:00.395Z,20.55
2022-11-24T15:15:15.337Z,17.94
2022-11-24T15:15:30.340Z,15.64
2022-11-24T15:15:45.330Z,14.60
2022-11-24T15:16:02.971Z,17.64
2022-11-24T15:16:15.446Z,17.65
2022-11-24T15:16:30.700Z,17.72
2022-11-24T15:16:45.428Z,17.81
2022-11-24T15:17:00.356Z,17.83
2022-11-24T15:17:15.338Z,17.93
2022-11-24T15:17:30.344Z,17.96
2022-11-24T15:17:45.362Z,17.91
2022-11-24T15:18:00.365Z,17.59
2022-11-24T15:18:15.355Z,18.01
2022-11-24T15:18:30.348Z,18.59
2022-11-24T15:18:45.349Z,18.64
2022-11-24T15:19:00.346Z,18.15
2022-11-24T15:19:15.355Z,18.05
2022-11-24T15:19:30.333Z,15.56
2022-11-24T15:19:45.563Z,15.95
2022-11-24T15:20:00.335Z,15.41
2022-11-24T15:20:15.382Z,14.33
2022-11-24T15:20:30.370Z,14.97
2022-11-24T15:20:45.390Z,17.12
2022-11-24T15:21:00.304Z,18.59
2022-11-24T15:21:19.163Z,19.90
2022-11-24T15:21:30.316Z,19.93
2022-11-24T15:21:45.556Z,20.00
2022-11-24T15:22:00.332Z,20.02
2022-11-24T15:22:15.324Z,20.11
2022-11-24T15:22:30.341Z,20.23
2022-11-24T15:22:45.327Z,20.20
2022-11-24T15:23:00.295Z,20.26
2022-11-24T15:23:15.328Z,20.29
2022-11-24T15:23:30.289Z,18.99
2022-11-24T15:23:45.294Z,20.10
2022-11-24T15:24:00.314Z,20.30
2022-11-24T15:24:15.314Z,20.20
2022-11-24T15:24:30.335Z,19.81
2022-11-24T15:24:45.301Z,20.04
2022-11-24T15:25:00.289Z,20.10
2022-11-24T15:25:15.369Z,19.01
2022-11-24T15:25:30.297Z,17.30
2022-11-24T15:25:45.308Z,15.47
2022-11-24T15:26:00.309Z,14.90
2022-11-24T15:26:15.296Z,16.02
2022-11-24T15:26:34.093Z,19.06
2022-11-24T15:26:46.311Z,19.09
2022-11-24T15:27:00.275Z,19.15
2022-11-24T15:27:15.260Z,19.15
2022-11-24T15:27:30.276Z,19.19
2022-11-24T15:27:45.331Z,19.23
2022-11-24T15:28:00.300Z,19.20
2022-11-24T15:28:15.269Z,19.29
2022-11-24T15:28:30.300Z,19.41
2022-11-24T15:28:45.282Z,20.41
2022-11-24T15:29:00.275Z,20.73
2022-11-24T15:29:15.350Z,20.74
2022-11-24T15:29:30.275Z,20.73
2022-11-24T15:29:45.329Z,21.30
2022-11-24T15:30:01.957Z,21.93
2022-11-24T15:30:15.305Z,22.92
2022-11-24T15:30:30.336Z,22.92
2022-11-24T15:30:45.279Z,23.75
2022-11-24T15:31:00.315Z,22.35
2022-11-24T15:31:15.336Z,23.15
2022-11-24T15:31:30.341Z,24.89
2022-11-24T15:31:50.819Z,26.45
2022-11-24T15:32:01.311Z,26.47
2022-11-24T15:32:15.303Z,26.53
2022-11-24T15:32:30.264Z,26.56
2022-11-24T15:32:45.284Z,26.57
2022-11-24T15:33:00.253Z,26.61
2022-11-24T15:33:15.334Z,26.71
2022-11-24T15:33:30.276Z,26.79
2022-11-24T15:33:45.269Z,26.68
2022-11-24T15:34:00.267Z,27.11
2022-11-24T15:34:15.232Z,27.01
2022-11-24T15:34:30.366Z,26.89
2022-11-24T15:34:45.263Z,27.29
2022-11-24T15:35:00.223Z,28.32
2022-11-24T15:35:15.244Z,28.95
2022-11-24T15:35:30.268Z,29.47
2022-11-24T15:35:45.286Z,29.05
2022-11-24T15:36:00.229Z,29.11
2022-11-24T15:36:15.243Z,31.41
2022-11-24T15:36:30.262Z,33.36
2022-11-24T15:36:45.221Z,35.89
2022-11-24T15:37:00.234Z,36.58
2022-11-24T15:37:15.241Z,37.07
2022-11-24T15:37:34.041Z,38.47
2022-11-24T15:37:45.238Z,38.48
2022-11-24T15:38:00.247Z,38.53
2022-11-24T15:38:15.235Z,38.56
2022-11-24T15:38:30.200Z,38.63
2022-11-24T15:38:45.212Z,38.83
2022-11-24T15:39:00.241Z,38.90
2022-11-24T15:39:15.253Z,39.12
2022-11-24T15:39:30.232Z,39.33
2022-11-24T15:39:45.222Z,39.85
2022-11-24T15:40:00.271Z,40.13
2022-11-24T15:40:15.210Z,40.84
2022-11-24T15:40:30.241Z,41.44
2022-11-24T15:40:45.230Z,41.96
2022-11-24T15:41:00.260Z,42.15
2022-11-24T15:41:15.215Z,43.30
2022-11-24T15:41:30.251Z,42.41
2022-11-24T15:41:45.221Z,43.42
2022-11-24T15:42:00.186Z,43.59
2022-11-24T15:42:15.231Z,43.84
2022-11-24T15:42:30.211Z,44.81
2022-11-24T15:42:45.221Z,45.27
2022-11-24T15:43:05.016Z,45.74
2022-11-24T15:43:16.208Z,45.77
2022-11-24T15:43:30.220Z,45.86
2022-11-24T15:43:45.234Z,45.94
2022-11-24T15:44:00.193Z,46.00
2022-11-24T15:44:15.188Z,46.12
2022-11-24T15:44:30.240Z,46.37
2022-11-24T15:44:45.206Z,46.51